Řízení letového provozu České republiky
OPMET data - Ceska Republika Aktualizace: 19.02.2018 12:04:05  UTC
SIGMET / AIRMET - NIL
Warning / Vystraha - NIL
 
METAR / SPECI
METAR LKCV 191100Z VRB02KT CAVOK 01/M06 Q1022 NOSIG=
METAR LKKB 191100Z 06007KT 360V110 CAVOK 00/M04 Q1021 NOSIG=
METAR LKKU 191200Z 01001KT 9999 FEW030 02/M05 Q1022 RMK REG QNH 1014=
METAR LKKV 191200Z 12007KT CAVOK M00/M06 Q1017=
METAR LKLN 191100Z AUTO 08005KT 330V130 CAVOK 01/M05 Q1020=
METAR LKMT 191200Z VRB01KT 8000 NSC M01/M03 Q1022 R04/710195 NOSIG=
METAR LKNA 191100Z 13008KT CAVOK M03/M06 Q1020 NOSIG=
METAR LKPD 191100Z 09005KT CAVOK 01/M05 Q1022 NOSIG=
METAR LKPR 191200Z 10006KT 050V140 CAVOK 01/M06 Q1019 NOSIG=
METAR LKTB 191200Z 07006KT CAVOK 00/M04 Q1022 R27/31//95 NOSIG=
METAR LKVO 191200Z 10007KT 050V140 CAVOK 02/M05 Q1021=
TAF
TAF LKCV 190500Z 1906/2006 12005KT CAVOK      TEMPO 1911/1917 14010KT BKN040      BECMG 2000/2002 VRB02KT BKN030=
TAF LKKB 190500Z 1906/2006 VRB02KT CAVOK      BECMG 1910/1912 11006KT SCT040      BECMG 1918/1920 CAVOK=
TAF LKKU NIL
TAF LKKV 191100Z 1912/2018 06005KT 9999 BKN020      TEMPO 1912/1919 CAVOK      TEMPO 2010/2017 6000 -SN SCT008 BKN013=
TAF LKLN NIL
TAF LKMT 191100Z 1912/2018 17004KT 6000 NSC      BECMG 1912/1914 CAVOK      BECMG 1916/1918 VRB02KT      BECMG 1921/1923 3000 BR NSC      BECMG 1923/2002 1200 BR SCT005      TEMPO 2002/2007 0700 FZFG BKN004      BECMG 2004/2007 04008KT      BECMG 2007/2011 6000 BKN017      BECMG 2012/2014 CAVOK=
TAF AMD LKNA 190500Z 1906/2006 02006KT CAVOK      BECMG 1906/1908 BKN030      BECMG 1910/1912 13006KT      TEMPO 1915/2000 6000 BKN020      PROB30 1916/1918 3000 BR NSC      TEMPO 2003/2006 0800 FZFG VV001=
TAF LKPD 190500Z 1906/2006 VRB02KT CAVOK      BECMG 1908/1910 14006KT      TEMPO 1911/1919 BKN040      BECMG 1920/1922 VRB02KT=
TAF LKPR 191100Z 1912/2018 12006KT CAVOK      TEMPO 1912/1922 9999 SCT030      BECMG 2005/2008 9999 BKN030      TEMPO 2008/2013 -SN BKN020      BECMG 2013/2016 03005KT CAVOK=
TAF LKTB 191100Z 1912/2018 13006KT 9999 SCT030      TEMPO 1912/1920 9999 BKN030      BECMG 1919/1922 07006KT=
TAF LKVO NIL